createdAt,value
2019-03-18T00:00:47.014Z,67.17
2019-03-18T00:03:11.491Z,67.31
2019-03-18T00:05:36.003Z,67.53
2019-03-18T00:08:00.405Z,67.90
2019-03-18T00:10:25.072Z,67.16
2019-03-18T00:12:52.020Z,67.86
2019-03-18T00:15:15.785Z,67.59
2019-03-18T00:17:40.215Z,67.70
2019-03-18T00:20:06.352Z,67.23
2019-03-18T00:22:30.771Z,67.55
2019-03-18T00:24:55.169Z,67.64
2019-03-18T00:27:19.589Z,67.46
2019-03-18T00:29:44.060Z,67.71
2019-03-18T00:32:08.601Z,68.07
2019-03-18T00:34:33.015Z,68.57
2019-03-18T00:36:57.431Z,68.01
2019-03-18T00:39:21.850Z,68.75
2019-03-18T00:41:46.281Z,68.14
2019-03-18T00:44:10.757Z,68.04
2019-03-18T00:46:35.251Z,67.60
2019-03-18T00:48:59.662Z,67.21
2019-03-18T00:51:24.085Z,67.84
2019-03-18T00:53:48.492Z,67.19
2019-03-18T00:56:12.938Z,66.91
2019-03-18T00:58:37.317Z,67.04
2019-03-18T01:01:01.714Z,68.18
2019-03-18T01:03:26.125Z,67.43
2019-03-18T01:05:50.615Z,67.39
2019-03-18T01:08:15.023Z,68.29
2019-03-18T01:10:39.448Z,67.74
2019-03-18T01:13:03.866Z,67.59
2019-03-18T01:15:28.845Z,68.22
2019-03-18T01:17:53.331Z,68.30
2019-03-18T01:20:17.978Z,68.35
2019-03-18T01:22:42.511Z,68.46
2019-03-18T01:25:09.439Z,68.32
2019-03-18T01:27:33.841Z,68.68
2019-03-18T01:29:58.624Z,68.74
2019-03-18T01:32:23.220Z,68.67
2019-03-18T01:34:47.610Z,68.49
2019-03-18T01:37:12.036Z,68.69
2019-03-18T01:39:37.108Z,69.03
2019-03-18T01:42:01.527Z,68.74
2019-03-18T01:44:25.941Z,68.80
2019-03-18T01:46:50.376Z,68.26
2019-03-18T01:49:14.774Z,68.17
2019-03-18T01:51:39.216Z,68.35
2019-03-18T01:54:03.608Z,68.40
2019-03-18T01:56:28.003Z,68.28
2019-03-18T01:58:52.428Z,68.24
2019-03-18T02:01:16.820Z,68.32
2019-03-18T02:03:41.245Z,68.71
2019-03-18T02:06:05.695Z,68.97
2019-03-18T02:08:30.126Z,68.81
2019-03-18T02:10:54.799Z,68.89
2019-03-18T02:13:19.213Z,68.92
2019-03-18T02:15:52.827Z,68.74
2019-03-18T02:18:09.810Z,69.24
2019-03-18T02:20:34.217Z,70.37
2019-03-18T02:22:58.700Z,70.52
2019-03-18T02:25:23.111Z,70.68
2019-03-18T02:27:47.538Z,70.63
2019-03-18T02:30:14.616Z,70.68
2019-03-18T02:32:39.082Z,70.19
2019-03-18T02:35:03.553Z,70.39
2019-03-18T02:37:27.990Z,70.46
2019-03-18T02:39:52.393Z,70.57
2019-03-18T02:42:16.808Z,71.07
2019-03-18T02:44:41.236Z,70.50
2019-03-18T02:47:05.629Z,70.45
2019-03-18T02:49:30.060Z,70.33
2019-03-18T02:51:54.468Z,70.40
2019-03-18T02:54:18.896Z,70.29
2019-03-18T02:56:43.301Z,70.17
2019-03-18T02:59:07.713Z,70.43
2019-03-18T03:01:32.137Z,70.46
2019-03-18T03:03:56.613Z,70.62
2019-03-18T03:06:21.216Z,70.60
2019-03-18T03:08:45.751Z,70.38
2019-03-18T03:11:10.220Z,70.84
2019-03-18T03:13:34.659Z,71.14
2019-03-18T03:15:59.081Z,71.24
2019-03-18T03:18:23.530Z,71.50
2019-03-18T03:20:48.009Z,72.05
2019-03-18T03:23:12.449Z,72.20
2019-03-18T03:25:36.862Z,72.40
2019-03-18T03:28:01.301Z,72.45
2019-03-18T03:30:25.716Z,72.90
2019-03-18T03:32:50.120Z,72.87
2019-03-18T03:35:16.301Z,72.61
2019-03-18T03:37:40.694Z,72.99
2019-03-18T03:40:07.369Z,73.19
2019-03-18T03:42:31.771Z,73.08
2019-03-18T03:44:56.178Z,73.48
2019-03-18T03:47:20.580Z,73.71
2019-03-18T03:49:45.073Z,73.87
2019-03-18T03:52:09.540Z,73.76
2019-03-18T03:54:33.945Z,73.75
2019-03-18T03:56:58.491Z,74.80
2019-03-18T03:59:23.046Z,75.25
2019-03-18T04:01:47.530Z,75.05
2019-03-18T04:04:12.082Z,74.87
2019-03-18T04:06:36.567Z,75.37
2019-03-18T04:09:01.135Z,75.55
2019-03-18T04:11:25.543Z,75.18
2019-03-18T04:13:49.964Z,75.72
2019-03-18T04:16:14.381Z,76.04
2019-03-18T04:18:38.888Z,76.22
2019-03-18T04:21:03.426Z,75.63
2019-03-18T04:23:27.834Z,75.52
2019-03-18T04:25:52.848Z,75.50
2019-03-18T04:28:17.269Z,75.50
2019-03-18T04:30:41.682Z,75.46
2019-03-18T04:33:06.079Z,75.86
2019-03-18T04:35:30.573Z,75.59
2019-03-18T04:37:54.970Z,75.86
2019-03-18T04:40:19.432Z,75.71
2019-03-18T04:42:43.815Z,75.25
2019-03-18T04:45:09.782Z,75.22
2019-03-18T04:47:34.251Z,74.76
2019-03-18T04:49:58.679Z,74.14
2019-03-18T04:52:23.072Z,74.07
2019-03-18T04:54:47.499Z,74.11
2019-03-18T04:57:11.891Z,74.26
2019-03-18T04:59:36.304Z,73.83
2019-03-18T05:02:00.712Z,74.27
2019-03-18T05:04:25.122Z,74.16
2019-03-18T05:06:49.613Z,74.19
2019-03-18T05:09:14.603Z,74.01
2019-03-18T05:11:39.011Z,74.37
2019-03-18T05:14:03.406Z,73.89
2019-03-18T05:16:27.856Z,74.63
2019-03-18T05:18:52.252Z,74.58
2019-03-18T05:21:16.675Z,74.92
2019-03-18T05:23:41.073Z,75.28
2019-03-18T05:26:05.867Z,75.33
2019-03-18T05:28:30.259Z,75.60
2019-03-18T05:30:54.676Z,75.66
2019-03-18T05:33:19.083Z,75.93
2019-03-18T05:35:43.505Z,75.72
2019-03-18T05:38:07.915Z,75.20
2019-03-18T05:40:32.347Z,76.28
2019-03-18T05:42:56.739Z,76.44
2019-03-18T05:45:21.233Z,76.88
2019-03-18T05:47:45.712Z,76.58
2019-03-18T05:50:11.471Z,76.11
2019-03-18T05:52:35.881Z,75.96
2019-03-18T05:55:00.344Z,75.52
2019-03-18T05:57:26.053Z,75.34
2019-03-18T05:59:50.837Z,75.63
2019-03-18T06:02:15.233Z,76.82
2019-03-18T06:04:39.636Z,77.34
2019-03-18T06:07:04.151Z,77.85
2019-03-18T06:09:29.120Z,77.81
2019-03-18T06:11:53.556Z,77.42
2019-03-18T06:14:17.960Z,77.44
2019-03-18T06:16:42.418Z,77.29
2019-03-18T06:19:06.886Z,76.95
2019-03-18T06:21:31.323Z,76.99
2019-03-18T06:23:55.729Z,77.24
2019-03-18T06:26:20.167Z,76.42
2019-03-18T06:28:44.571Z,76.72
2019-03-18T06:31:09.082Z,76.58
2019-03-18T06:33:33.500Z,76.34
2019-03-18T06:35:57.934Z,76.39
2019-03-18T06:38:22.425Z,76.36
2019-03-18T06:40:46.912Z,76.23
2019-03-18T06:43:11.318Z,75.58
2019-03-18T06:45:35.756Z,76.11
2019-03-18T06:48:05.306Z,75.85
2019-03-18T06:50:26.366Z,75.22
2019-03-18T06:52:50.767Z,75.79
2019-03-18T06:55:15.164Z,75.64
2019-03-18T06:57:39.589Z,75.49
2019-03-18T07:00:12.065Z,75.81
2019-03-18T07:02:36.489Z,75.57
2019-03-18T07:05:00.874Z,74.97
2019-03-18T07:07:25.288Z,75.17
2019-03-18T07:09:49.739Z,75.05
2019-03-18T07:12:14.173Z,75.01
2019-03-18T07:14:38.585Z,75.05
2019-03-18T07:17:03.095Z,74.95
2019-03-18T07:19:27.591Z,75.04
2019-03-18T07:21:52.018Z,74.58
2019-03-18T07:24:16.535Z,74.73
2019-03-18T07:26:40.956Z,74.95
2019-03-18T07:29:05.360Z,74.39
2019-03-18T07:31:29.861Z,74.47
2019-03-18T07:33:54.267Z,74.83
2019-03-18T07:36:18.711Z,74.89
2019-03-18T07:38:43.110Z,74.58
2019-03-18T07:41:07.718Z,75.03
2019-03-18T07:43:32.292Z,74.06
2019-03-18T07:45:56.823Z,74.73
2019-03-18T07:48:30.282Z,74.74
2019-03-18T07:50:47.346Z,75.03
2019-03-18T07:53:11.751Z,74.54
2019-03-18T07:55:36.232Z,74.49
2019-03-18T07:58:00.627Z,74.87
2019-03-18T08:00:25.027Z,74.99
2019-03-18T08:02:49.511Z,74.72
2019-03-18T08:05:13.968Z,74.69
2019-03-18T08:07:38.543Z,74.22
2019-03-18T08:10:02.936Z,74.07
2019-03-18T08:12:27.357Z,73.41
2019-03-18T08:14:51.748Z,73.77
2019-03-18T08:17:16.162Z,73.57
2019-03-18T08:19:40.579Z,73.87
2019-03-18T08:22:05.071Z,73.82
2019-03-18T08:24:29.472Z,73.90
2019-03-18T08:26:53.891Z,73.32
2019-03-18T08:29:18.371Z,72.77
2019-03-18T08:31:42.803Z,72.59
2019-03-18T08:34:07.204Z,72.35
2019-03-18T08:36:31.696Z,73.15
2019-03-18T08:38:56.124Z,72.46
2019-03-18T08:41:20.514Z,72.51
2019-03-18T08:43:44.948Z,71.93
2019-03-18T08:46:09.333Z,72.07
2019-03-18T08:48:33.753Z,71.22
2019-03-18T08:50:58.159Z,71.46
2019-03-18T08:53:22.575Z,71.46
2019-03-18T08:55:46.966Z,71.59
2019-03-18T08:58:11.460Z,71.19
2019-03-18T09:00:35.937Z,70.87
2019-03-18T09:03:00.451Z,70.60
2019-03-18T09:05:24.823Z,70.25
2019-03-18T09:07:49.326Z,69.23
2019-03-18T09:10:14.973Z,69.36
2019-03-18T09:12:39.423Z,69.24
2019-03-18T09:15:05.466Z,68.57
2019-03-18T09:17:29.965Z,68.03
2019-03-18T09:19:54.369Z,68.62
2019-03-18T09:22:18.811Z,68.01
2019-03-18T09:24:43.222Z,67.89
2019-03-18T09:27:07.620Z,67.26
2019-03-18T09:29:32.060Z,67.50
2019-03-18T09:31:56.479Z,66.16
2019-03-18T09:34:20.901Z,66.46
2019-03-18T09:36:45.309Z,66.31
2019-03-18T09:39:09.763Z,66.01
2019-03-18T09:41:34.237Z,66.11
2019-03-18T09:43:58.669Z,65.71
2019-03-18T09:46:23.095Z,66.03
2019-03-18T09:48:47.597Z,65.91
2019-03-18T09:51:12.004Z,65.39
2019-03-18T09:53:37.684Z,65.09
2019-03-18T09:56:02.315Z,66.32
2019-03-18T09:58:26.824Z,65.08
2019-03-18T10:00:51.382Z,65.23
2019-03-18T10:03:15.813Z,65.21
2019-03-18T10:05:40.283Z,65.27
2019-03-18T10:08:04.859Z,65.17
2019-03-18T10:10:29.271Z,65.09
2019-03-18T10:12:53.697Z,63.89
2019-03-18T10:15:20.186Z,63.64
2019-03-18T10:17:44.689Z,64.02
2019-03-18T10:20:09.928Z,62.54
2019-03-18T10:22:36.096Z,62.47
2019-03-18T10:25:00.497Z,62.01
2019-03-18T10:27:24.892Z,62.54
2019-03-18T10:29:49.357Z,62.24
2019-03-18T10:32:13.762Z,62.87
2019-03-18T10:34:38.255Z,62.28
2019-03-18T10:37:02.662Z,62.56
2019-03-18T10:39:27.082Z,63.88
2019-03-18T10:41:51.487Z,63.88
2019-03-18T10:44:15.968Z,67.89
2019-03-18T10:46:40.388Z,68.70
2019-03-18T10:49:04.879Z,67.99
2019-03-18T10:51:31.850Z,67.98
2019-03-18T10:53:55.518Z,67.69
2019-03-18T10:56:19.915Z,67.00
2019-03-18T10:58:44.355Z,69.43
2019-03-18T11:01:08.738Z,67.93
2019-03-18T11:03:33.175Z,68.06
2019-03-18T11:05:57.572Z,68.09
2019-03-18T11:08:22.008Z,68.49
2019-03-18T11:10:46.408Z,68.42
2019-03-18T11:13:10.809Z,66.15
2019-03-18T11:15:35.311Z,65.16
2019-03-18T11:17:59.792Z,64.29
2019-03-18T11:20:24.291Z,62.97
2019-03-18T11:22:48.702Z,62.92
2019-03-18T11:25:15.231Z,62.97
2019-03-18T11:27:39.692Z,64.35
2019-03-18T11:30:05.851Z,64.38
2019-03-18T11:32:30.260Z,63.30
2019-03-18T11:34:54.673Z,64.41
2019-03-18T11:37:19.084Z,63.81
2019-03-18T11:39:43.515Z,63.49
2019-03-18T11:42:07.982Z,63.14
2019-03-18T11:44:32.417Z,64.54
2019-03-18T11:46:56.828Z,62.63
2019-03-18T11:49:21.336Z,63.03
2019-03-18T11:51:45.733Z,63.11
2019-03-18T11:54:10.220Z,63.26
2019-03-18T11:56:34.659Z,62.05
2019-03-18T11:58:59.167Z,60.65
2019-03-18T12:01:23.641Z,59.74
2019-03-18T12:03:48.037Z,59.21
2019-03-18T12:06:12.533Z,56.82
2019-03-18T12:08:36.932Z,55.51
2019-03-18T12:11:01.345Z,55.71
2019-03-18T12:13:25.741Z,60.69
2019-03-18T12:15:50.174Z,60.79
2019-03-18T12:18:14.673Z,59.31
2019-03-18T12:20:39.239Z,60.98
2019-03-18T12:23:03.707Z,62.61
2019-03-18T12:25:28.151Z,62.77
2019-03-18T12:27:52.572Z,64.47
2019-03-18T12:30:24.767Z,58.62
2019-03-18T12:32:49.293Z,54.41
2019-03-18T12:35:13.971Z,53.16
2019-03-18T12:37:38.374Z,59.60
2019-03-18T12:40:02.952Z,59.98
2019-03-18T12:42:27.351Z,59.63
2019-03-18T12:44:51.932Z,60.80
2019-03-18T12:47:16.420Z,62.03
2019-03-18T12:49:40.852Z,73.05
2019-03-18T12:52:05.336Z,76.18
2019-03-18T12:54:29.753Z,73.32
2019-03-18T12:56:54.188Z,72.21
2019-03-18T12:59:18.598Z,72.29
2019-03-18T13:01:43.101Z,71.91
2019-03-18T13:04:07.584Z,70.89
2019-03-18T13:06:33.506Z,65.35
2019-03-18T13:08:58.308Z,55.51
2019-03-18T13:11:22.886Z,50.12
2019-03-18T13:13:47.386Z,50.05
2019-03-18T13:16:11.824Z,49.93
2019-03-18T13:18:36.362Z,49.04
2019-03-18T13:21:07.734Z,46.65
2019-03-18T13:23:26.906Z,47.34
2019-03-18T13:25:51.426Z,44.36
2019-03-18T13:28:15.931Z,44.81
2019-03-18T13:30:40.380Z,44.42
2019-03-18T13:33:04.924Z,44.42
2019-03-18T13:35:29.358Z,46.26
2019-03-18T13:37:53.763Z,44.08
2019-03-18T13:40:19.909Z,42.72
2019-03-18T13:42:44.484Z,43.29
2019-03-18T13:45:22.143Z,43.88
2019-03-18T13:47:46.582Z,42.40
2019-03-18T13:50:13.195Z,43.56
2019-03-18T13:52:37.699Z,47.17
2019-03-18T13:55:02.115Z,50.66
2019-03-18T13:57:26.535Z,42.61
2019-03-18T13:59:50.958Z,43.83
2019-03-18T14:02:15.435Z,43.46
2019-03-18T14:04:39.836Z,45.48
2019-03-18T14:07:04.361Z,44.82
2019-03-18T14:09:28.851Z,45.84
2019-03-18T14:11:53.271Z,51.52
2019-03-18T14:14:17.691Z,53.50
2019-03-18T14:16:42.212Z,43.19
2019-03-18T14:19:06.721Z,43.78
2019-03-18T14:21:33.449Z,51.27
2019-03-18T14:23:57.280Z,59.14
2019-03-18T14:26:21.711Z,60.74
2019-03-18T14:28:46.124Z,61.63
2019-03-18T14:31:10.561Z,61.45
2019-03-18T14:33:35.042Z,61.41
2019-03-18T14:35:59.507Z,61.05
2019-03-18T14:38:23.890Z,60.99
2019-03-18T14:40:48.309Z,60.82
2019-03-18T14:43:12.821Z,62.42
2019-03-18T14:45:37.291Z,63.41
2019-03-18T14:48:01.725Z,65.36
2019-03-18T14:50:26.119Z,62.94
2019-03-18T14:52:50.554Z,64.90
2019-03-18T14:55:15.886Z,65.59
2019-03-18T14:57:40.301Z,53.79
2019-03-18T15:00:10.232Z,51.02
2019-03-18T15:02:34.688Z,50.73
2019-03-18T15:04:59.095Z,51.39
2019-03-18T15:07:23.549Z,48.86
2019-03-18T15:09:47.964Z,46.65
2019-03-18T15:12:12.419Z,46.33
2019-03-18T15:14:36.839Z,44.76
2019-03-18T15:17:01.359Z,44.54
2019-03-18T15:19:25.776Z,44.33
2019-03-18T15:21:58.271Z,45.98
2019-03-18T15:24:17.386Z,44.84
2019-03-18T15:26:42.026Z,44.37
2019-03-18T15:29:06.427Z,45.03
2019-03-18T15:31:30.989Z,45.54
2019-03-18T15:33:55.413Z,49.26
2019-03-18T15:36:19.900Z,46.93
2019-03-18T15:38:44.349Z,46.90
2019-03-18T15:41:08.833Z,55.94
2019-03-18T15:43:33.268Z,58.22
2019-03-18T15:45:57.672Z,61.03
2019-03-18T15:48:22.167Z,61.74
2019-03-18T15:50:46.670Z,55.10
2019-03-18T15:53:11.093Z,51.96
2019-03-18T15:55:35.515Z,53.57
2019-03-18T15:58:00.377Z,49.57
2019-03-18T16:00:26.136Z,52.33
2019-03-18T16:02:50.653Z,56.16
2019-03-18T16:05:15.134Z,51.27
2019-03-18T16:07:39.847Z,59.18
2019-03-18T16:10:09.873Z,62.26
2019-03-18T16:12:34.301Z,62.43
2019-03-18T16:14:58.712Z,63.35
2019-03-18T16:17:23.136Z,63.91
2019-03-18T16:19:47.551Z,65.52
2019-03-18T16:22:23.007Z,66.26
2019-03-18T16:24:38.193Z,66.08
2019-03-18T16:27:02.612Z,65.94
2019-03-18T16:29:27.102Z,66.61
2019-03-18T16:31:51.540Z,66.63
2019-03-18T16:34:15.983Z,61.88
2019-03-18T16:36:40.371Z,59.50
2019-03-18T16:39:06.172Z,63.30
2019-03-18T16:41:30.629Z,64.65
2019-03-18T16:43:55.078Z,64.06
2019-03-18T16:46:19.486Z,61.87
2019-03-18T16:48:43.919Z,61.54
2019-03-18T16:51:08.320Z,62.48
2019-03-18T16:53:32.757Z,62.03
2019-03-18T16:55:57.182Z,61.92
2019-03-18T16:58:21.675Z,63.95
2019-03-18T17:00:46.175Z,63.68
2019-03-18T17:03:10.691Z,64.31
2019-03-18T17:05:35.095Z,62.49
2019-03-18T17:07:59.606Z,63.49
2019-03-18T17:10:24.127Z,64.34
2019-03-18T17:12:48.717Z,66.22
2019-03-18T17:15:14.789Z,67.04
2019-03-18T17:17:39.207Z,66.59
2019-03-18T17:20:04.811Z,67.36
2019-03-18T17:22:29.233Z,66.65
2019-03-18T17:24:53.684Z,67.43
2019-03-18T17:27:18.090Z,67.30
2019-03-18T17:29:42.545Z,67.43
2019-03-18T17:32:06.977Z,67.28
2019-03-18T17:34:31.466Z,66.87
2019-03-18T17:36:55.900Z,66.90
2019-03-18T17:39:20.319Z,67.12
2019-03-18T17:41:44.748Z,67.18
2019-03-18T17:44:09.217Z,67.66
2019-03-18T17:46:33.639Z,68.20
2019-03-18T17:48:58.062Z,67.87
2019-03-18T17:51:22.462Z,66.86
2019-03-18T17:53:46.924Z,66.73
2019-03-18T17:56:11.331Z,67.33
2019-03-18T17:58:35.854Z,67.79
2019-03-18T18:01:01.896Z,68.98
2019-03-18T18:03:26.321Z,69.23
2019-03-18T18:05:51.613Z,69.09
2019-03-18T18:08:18.282Z,68.97
2019-03-18T18:10:42.247Z,69.31
2019-03-18T18:13:06.716Z,69.48
2019-03-18T18:15:31.255Z,69.21
2019-03-18T18:17:55.670Z,69.63
2019-03-18T18:20:20.250Z,69.95
2019-03-18T18:22:44.796Z,69.74
2019-03-18T18:25:10.806Z,70.31
2019-03-18T18:27:35.279Z,70.76
2019-03-18T18:29:59.737Z,70.81
2019-03-18T18:32:24.271Z,70.45
2019-03-18T18:34:48.804Z,70.90
2019-03-18T18:37:14.118Z,70.74
2019-03-18T18:39:38.563Z,70.59
2019-03-18T18:42:03.054Z,70.58
2019-03-18T18:44:27.506Z,70.71
2019-03-18T18:46:51.898Z,70.54
2019-03-18T18:49:16.334Z,70.20
2019-03-18T18:51:40.755Z,70.59
2019-03-18T18:54:05.239Z,70.96
2019-03-18T18:56:29.649Z,70.93
2019-03-18T18:58:54.050Z,71.14
2019-03-18T19:01:18.494Z,71.33
2019-03-18T19:03:42.971Z,70.95
2019-03-18T19:06:07.466Z,71.11
2019-03-18T19:08:31.941Z,71.06
2019-03-18T19:10:56.384Z,70.62
2019-03-18T19:13:20.803Z,70.22
2019-03-18T19:15:45.313Z,70.31
2019-03-18T19:18:09.851Z,70.20
2019-03-18T19:20:34.307Z,70.51
2019-03-18T19:22:58.801Z,70.52
2019-03-18T19:25:23.258Z,70.44
2019-03-18T19:27:47.773Z,70.28
2019-03-18T19:30:15.156Z,70.42
2019-03-18T19:32:39.636Z,70.37
2019-03-18T19:35:05.158Z,70.63
2019-03-18T19:37:29.567Z,70.46
2019-03-18T19:39:54.069Z,70.67
2019-03-18T19:42:18.569Z,70.75
2019-03-18T19:44:43.125Z,70.52
2019-03-18T19:47:07.550Z,70.26
2019-03-18T19:49:31.992Z,70.66
2019-03-18T19:51:56.436Z,70.99
2019-03-18T19:54:20.844Z,71.51
2019-03-18T19:56:45.284Z,71.83
2019-03-18T19:59:09.703Z,72.28
2019-03-18T20:01:34.281Z,72.41
2019-03-18T20:03:58.843Z,72.15
2019-03-18T20:06:23.355Z,72.30
2019-03-18T20:08:47.768Z,72.65
2019-03-18T20:11:12.243Z,72.46
2019-03-18T20:13:36.608Z,72.43
2019-03-18T20:16:01.103Z,72.01
2019-03-18T20:18:25.528Z,72.57
2019-03-18T20:20:49.956Z,72.26
2019-03-18T20:23:14.355Z,72.13
2019-03-18T20:25:38.812Z,72.68
2019-03-18T20:28:03.278Z,72.57
2019-03-18T20:30:27.795Z,72.78
2019-03-18T20:32:52.303Z,72.74
2019-03-18T20:35:19.820Z,72.56
2019-03-18T20:37:44.207Z,72.57
2019-03-18T20:40:11.478Z,72.78
2019-03-18T20:42:35.943Z,72.58
2019-03-18T20:45:00.368Z,73.03
2019-03-18T20:47:24.862Z,72.91
2019-03-18T20:49:49.274Z,73.54
2019-03-18T20:52:17.059Z,74.00
2019-03-18T20:54:41.550Z,73.98
2019-03-18T20:57:05.961Z,74.22
2019-03-18T20:59:30.365Z,74.04
2019-03-18T21:01:54.885Z,74.01
2019-03-18T21:04:19.313Z,74.13
2019-03-18T21:06:43.729Z,74.36
2019-03-18T21:09:08.299Z,73.97
2019-03-18T21:11:32.715Z,74.33
2019-03-18T21:13:57.598Z,74.56
2019-03-18T21:16:22.146Z,74.47
2019-03-18T21:18:46.542Z,75.13
2019-03-18T21:21:10.967Z,75.05
2019-03-18T21:23:35.382Z,75.04
2019-03-18T21:25:59.810Z,75.42
2019-03-18T21:28:24.237Z,75.73
2019-03-18T21:30:48.647Z,76.00
2019-03-18T21:33:13.205Z,76.18
2019-03-18T21:35:37.568Z,76.23
2019-03-18T21:38:01.989Z,76.14
2019-03-18T21:40:26.445Z,75.86
2019-03-18T21:42:50.996Z,76.05
2019-03-18T21:45:19.588Z,75.83
2019-03-18T21:47:44.289Z,75.73
2019-03-18T21:50:10.611Z,75.99
2019-03-18T21:52:35.095Z,75.95
2019-03-18T21:54:59.500Z,76.31
2019-03-18T21:57:24.082Z,76.07
2019-03-18T21:59:48.498Z,76.20
2019-03-18T22:02:13.070Z,75.84
2019-03-18T22:04:37.468Z,75.73
2019-03-18T22:07:01.959Z,75.30
2019-03-18T22:09:26.379Z,75.75
2019-03-18T22:11:50.806Z,75.88
2019-03-18T22:14:15.272Z,75.73
2019-03-18T22:16:39.794Z,75.70
2019-03-18T22:19:04.253Z,75.54
2019-03-18T22:21:28.733Z,75.79
2019-03-18T22:23:53.234Z,75.56
2019-03-18T22:26:17.663Z,75.30
2019-03-18T22:28:42.086Z,75.78
2019-03-18T22:31:06.494Z,75.80
2019-03-18T22:33:30.992Z,76.34
2019-03-18T22:35:55.569Z,76.30
2019-03-18T22:38:20.068Z,76.16
2019-03-18T22:40:44.477Z,76.42
2019-03-18T22:43:08.904Z,76.41
2019-03-18T22:45:33.289Z,75.97
2019-03-18T22:47:57.716Z,75.84
2019-03-18T22:50:22.262Z,76.38
2019-03-18T22:52:46.687Z,76.12
2019-03-18T22:55:12.134Z,75.92
2019-03-18T22:57:36.582Z,75.71
2019-03-18T23:00:01.066Z,75.04
2019-03-18T23:02:25.485Z,74.90
2019-03-18T23:04:49.974Z,74.78
2019-03-18T23:07:14.489Z,75.15
2019-03-18T23:09:38.918Z,75.19
2019-03-18T23:12:03.373Z,75.10
2019-03-18T23:14:27.810Z,75.28
2019-03-18T23:16:52.208Z,75.55
2019-03-18T23:19:16.714Z,76.25
2019-03-18T23:21:41.211Z,76.42
2019-03-18T23:24:05.698Z,76.17
2019-03-18T23:26:30.172Z,76.45
2019-03-18T23:28:54.601Z,76.74
2019-03-18T23:31:19.018Z,76.60
2019-03-18T23:33:43.500Z,75.69
2019-03-18T23:36:09.941Z,75.09
2019-03-18T23:38:34.364Z,74.83
2019-03-18T23:40:58.760Z,75.76
2019-03-18T23:43:23.184Z,76.04
2019-03-18T23:45:47.576Z,76.34
2019-03-18T23:48:12.009Z,76.62
2019-03-18T23:50:36.417Z,76.16
2019-03-18T23:53:00.877Z,76.06
2019-03-18T23:55:25.295Z,76.46
2019-03-18T23:57:49.710Z,76.38
